createdAt,value
2022-12-11T00:00:32.941Z,1005.2
2022-12-11T00:01:35.805Z,1005.1
2022-12-11T00:02:38.403Z,1005.2
2022-12-11T00:03:41.485Z,1005.2
2022-12-11T00:04:45.205Z,1005.1
2022-12-11T00:05:48.254Z,1005.1
2022-12-11T00:06:52.072Z,1005.2
2022-12-11T00:07:55.487Z,1005.2
2022-12-11T00:08:57.982Z,1005.2
2022-12-11T00:10:00.488Z,1005.2
2022-12-11T00:11:03.288Z,1005.2
2022-12-11T00:12:06.413Z,1005.2
2022-12-11T00:13:09.181Z,1005.2
2022-12-11T00:14:11.396Z,1005.2
2022-12-11T00:15:14.252Z,1005.2
2022-12-11T00:16:18.180Z,1005.2
2022-12-11T00:17:29.477Z,1005.2
2022-12-11T00:18:32.915Z,1005.2
2022-12-11T00:19:36.072Z,1005.2
2022-12-11T00:20:38.793Z,1005.2
2022-12-11T00:21:41.847Z,1005.1
2022-12-11T00:22:45.987Z,1005.1
2022-12-11T00:23:49.065Z,1005.1
2022-12-11T00:24:52.321Z,1005.1
2022-12-11T00:25:55.747Z,1005.1
2022-12-11T00:26:58.796Z,1005.1
2022-12-11T00:28:02.158Z,1005.1
2022-12-11T00:29:05.041Z,1005.1
2022-12-11T00:30:07.743Z,1005.1
2022-12-11T00:31:10.455Z,1005.1
2022-12-11T00:32:13.040Z,1005.1
2022-12-11T00:33:16.416Z,1005.1
2022-12-11T00:34:19.185Z,1005
2022-12-11T00:35:21.613Z,1005
2022-12-11T00:36:24.779Z,1005
2022-12-11T00:37:27.729Z,1005
2022-12-11T00:38:31.921Z,1005
2022-12-11T00:39:34.633Z,1005
2022-12-11T00:40:37.646Z,1004.9
2022-12-11T00:41:40.404Z,1004.9
2022-12-11T00:42:43.167Z,1005
2022-12-11T00:43:45.653Z,1004.9
2022-12-11T00:44:48.423Z,1004.9
2022-12-11T00:45:51.949Z,1004.9
2022-12-11T00:46:55.253Z,1004.9
2022-12-11T00:47:58.877Z,1004.9
2022-12-11T00:49:01.107Z,1004.9
2022-12-11T00:50:03.522Z,1004.9
2022-12-11T00:51:06.642Z,1004.9
2022-12-11T00:52:09.711Z,1004.9
2022-12-11T00:53:12.687Z,1004.9
2022-12-11T00:54:16.575Z,1004.9
2022-12-11T00:55:20.014Z,1004.9
2022-12-11T00:56:22.997Z,1004.9
2022-12-11T00:57:25.295Z,1004.9
2022-12-11T00:58:27.781Z,1004.9
2022-12-11T00:59:30.514Z,1004.9
2022-12-11T01:00:33.563Z,1004.9
2022-12-11T01:01:36.896Z,1004.9
2022-12-11T01:02:39.923Z,1004.9
2022-12-11T01:03:43.498Z,1004.9
2022-12-11T01:04:46.188Z,1004.9
2022-12-11T01:05:48.330Z,1004.9
2022-12-11T01:06:50.574Z,1004.9
2022-12-11T01:07:53.826Z,1004.9
2022-12-11T01:08:57.089Z,1004.9
2022-12-11T01:10:00.688Z,1005
2022-12-11T01:11:03.186Z,1004.9
2022-12-11T01:12:06.167Z,1004.9
2022-12-11T01:13:09.020Z,1004.9
2022-12-11T01:14:12.354Z,1004.9
2022-12-11T01:15:15.129Z,1004.9
2022-12-11T01:16:17.855Z,1004.9
2022-12-11T01:17:21.401Z,1004.9
2022-12-11T01:18:24.241Z,1004.9
2022-12-11T01:19:27.325Z,1004.9
2022-12-11T01:20:29.261Z,1004.9
2022-12-11T01:21:31.832Z,1004.9
2022-12-11T01:22:35.230Z,1004.9
2022-12-11T01:23:38.091Z,1004.9
2022-12-11T01:24:41.245Z,1004.9
2022-12-11T01:25:44.835Z,1004.9
2022-12-11T01:26:47.974Z,1004.9
2022-12-11T01:27:50.274Z,1004.9
2022-12-11T01:28:53.320Z,1004.9
2022-12-11T01:29:55.813Z,1005
2022-12-11T01:30:58.981Z,1005
2022-12-11T01:32:02.040Z,1005
2022-12-11T01:33:05.273Z,1005
2022-12-11T01:34:08.248Z,1005
2022-12-11T01:35:12.113Z,1005
2022-12-11T01:36:15.558Z,1005.1
2022-12-11T01:37:17.792Z,1005.1
2022-12-11T01:38:20.769Z,1005.1
2022-12-11T01:39:23.509Z,1005.1
2022-12-11T01:40:26.549Z,1005.1
2022-12-11T01:41:29.912Z,1005.1
2022-12-11T01:42:33.457Z,1005
2022-12-11T01:43:37.517Z,1005.1
2022-12-11T01:44:40.490Z,1005.1
2022-12-11T01:45:43.428Z,1005.1
2022-12-11T01:46:46.616Z,1005
2022-12-11T01:47:49.468Z,1005.1
2022-12-11T01:48:52.230Z,1005.1
2022-12-11T01:49:55.628Z,1005
2022-12-11T01:50:59.060Z,1005.1
2022-12-11T01:52:01.936Z,1005.1
2022-12-11T01:53:04.720Z,1005.1
2022-12-11T01:54:07.696Z,1005
2022-12-11T01:55:12.027Z,1005.1
2022-12-11T01:56:15.535Z,1005.1
2022-12-11T01:57:17.677Z,1005.1
2022-12-11T01:58:20.779Z,1005.1
2022-12-11T01:59:24.275Z,1005.2
2022-12-11T02:00:27.330Z,1005.1
2022-12-11T02:01:30.561Z,1005.1
2022-12-11T02:02:34.543Z,1005.1
2022-12-11T02:03:37.594Z,1005.1
2022-12-11T02:04:41.228Z,1005.1
2022-12-11T02:05:44.273Z,1005.1
2022-12-11T02:06:47.142Z,1005.1
2022-12-11T02:07:50.351Z,1005
2022-12-11T02:08:53.776Z,1005.1
2022-12-11T02:09:57.102Z,1005.1
2022-12-11T02:10:59.608Z,1005.1
2022-12-11T02:12:01.753Z,1005.1
2022-12-11T02:13:03.978Z,1005
2022-12-11T02:14:07.053Z,1005
2022-12-11T02:15:11.140Z,1005.1
2022-12-11T02:16:15.548Z,1005
2022-12-11T02:17:19.089Z,1005
2022-12-11T02:18:21.592Z,1005.1
2022-12-11T02:19:24.649Z,1005.1
2022-12-11T02:20:27.068Z,1005.1
2022-12-11T02:21:30.035Z,1005.1
2022-12-11T02:22:32.452Z,1005.1
2022-12-11T02:23:35.696Z,1005.1
2022-12-11T02:24:39.120Z,1005.1
2022-12-11T02:25:41.539Z,1005.1
2022-12-11T02:26:44.682Z,1005.1
2022-12-11T02:27:47.105Z,1005.1
2022-12-11T02:28:50.264Z,1005.1
2022-12-11T02:29:53.645Z,1005
2022-12-11T02:30:57.485Z,1005
2022-12-11T02:32:00.977Z,1005
2022-12-11T02:33:04.325Z,1005
2022-12-11T02:34:06.820Z,1005
2022-12-11T02:35:10.901Z,1005
2022-12-11T02:36:15.050Z,1005
2022-12-11T02:37:17.842Z,1005
2022-12-11T02:38:20.276Z,1005
2022-12-11T02:39:23.323Z,1005
2022-12-11T02:40:26.106Z,1005
2022-12-11T02:41:28.739Z,1005
2022-12-11T02:42:32.491Z,1005
2022-12-11T02:43:35.751Z,1005.1
2022-12-11T02:44:38.594Z,1005
2022-12-11T02:45:41.774Z,1005
2022-12-11T02:46:46.229Z,1005
2022-12-11T02:47:48.925Z,1005
2022-12-11T02:48:51.974Z,1005
2022-12-11T02:49:54.950Z,1005
2022-12-11T02:50:57.937Z,1005
2022-12-11T02:52:00.171Z,1005
2022-12-11T02:53:02.670Z,1005
2022-12-11T02:54:05.814Z,1005
2022-12-11T02:55:08.899Z,1005
2022-12-11T02:56:13.061Z,1005
2022-12-11T02:57:16.318Z,1005
2022-12-11T02:58:18.846Z,1005
2022-12-11T02:59:21.730Z,1005
2022-12-11T03:00:24.776Z,1005
2022-12-11T03:01:28.434Z,1005
2022-12-11T03:02:38.966Z,1004.9
2022-12-11T03:03:42.393Z,1005
2022-12-11T03:04:45.373Z,1005
2022-12-11T03:05:48.419Z,1005
2022-12-11T03:06:50.941Z,1004.9
2022-12-11T03:07:53.541Z,1005
2022-12-11T03:08:56.843Z,1005
2022-12-11T03:09:59.989Z,1005
2022-12-11T03:11:02.482Z,1005
2022-12-11T03:12:05.635Z,1005
2022-12-11T03:13:08.682Z,1005
2022-12-11T03:14:12.394Z,1005
2022-12-11T03:15:15.440Z,1005
2022-12-11T03:16:17.814Z,1005
2022-12-11T03:17:21.354Z,1005
2022-12-11T03:18:24.496Z,1005
2022-12-11T03:19:28.174Z,1005.1
2022-12-11T03:20:31.233Z,1005
2022-12-11T03:21:34.554Z,1005
2022-12-11T03:22:37.609Z,1005
2022-12-11T03:23:41.606Z,1005
2022-12-11T03:24:44.655Z,1004.9
2022-12-11T03:25:47.704Z,1005
2022-12-11T03:26:57.816Z,1005
2022-12-11T03:28:12.552Z,1005
2022-12-11T03:29:15.349Z,1005
2022-12-11T03:30:17.852Z,1004.9
2022-12-11T03:31:20.724Z,1004.9
2022-12-11T03:32:23.973Z,1004.9
2022-12-11T03:33:28.003Z,1004.9
2022-12-11T03:34:31.738Z,1004.9
2022-12-11T03:35:34.156Z,1004.9
2022-12-11T03:36:36.649Z,1004.9
2022-12-11T03:37:39.428Z,1004.8
2022-12-11T03:38:43.001Z,1004.8
2022-12-11T03:39:45.701Z,1004.9
2022-12-11T03:40:48.624Z,1004.9
2022-12-11T03:41:51.480Z,1004.9
2022-12-11T03:42:54.228Z,1004.9
2022-12-11T03:43:56.687Z,1004.8
2022-12-11T03:45:00.178Z,1004.8
2022-12-11T03:46:03.471Z,1004.8
2022-12-11T03:47:06.884Z,1004.8
2022-12-11T03:48:09.762Z,1004.8
2022-12-11T03:49:13.134Z,1004.8
2022-12-11T03:50:16.497Z,1004.8
2022-12-11T03:51:19.545Z,1004.8
2022-12-11T03:52:22.477Z,1004.8
2022-12-11T03:53:25.878Z,1004.8
2022-12-11T03:54:28.933Z,1004.8
2022-12-11T03:55:32.270Z,1004.8
2022-12-11T03:56:35.497Z,1004.8
2022-12-11T03:57:38.196Z,1004.8
2022-12-11T03:58:41.602Z,1004.8
2022-12-11T03:59:45.037Z,1004.8
2022-12-11T04:00:47.894Z,1004.8
2022-12-11T04:01:50.946Z,1004.8
2022-12-11T04:02:54.017Z,1004.8
2022-12-11T04:03:56.386Z,1004.8
2022-12-11T04:05:00.373Z,1004.8
2022-12-11T04:06:03.522Z,1004.8
2022-12-11T04:07:05.837Z,1004.8
2022-12-11T04:08:08.795Z,1004.8
2022-12-11T04:09:11.362Z,1004.9
2022-12-11T04:10:14.772Z,1004.9
2022-12-11T04:11:17.357Z,1005
2022-12-11T04:12:19.863Z,1004.9
2022-12-11T04:13:22.434Z,1005
2022-12-11T04:14:25.217Z,1004.9
2022-12-11T04:15:28.096Z,1004.9
2022-12-11T04:16:31.435Z,1004.9
2022-12-11T04:17:34.000Z,1004.9
2022-12-11T04:18:37.778Z,1004.9
2022-12-11T04:19:40.955Z,1004.9
2022-12-11T04:20:44.780Z,1004.9
2022-12-11T04:21:47.663Z,1004.9
2022-12-11T04:22:49.610Z,1004.9
2022-12-11T04:23:51.839Z,1004.9
2022-12-11T04:24:54.605Z,1004.9
2022-12-11T04:25:57.168Z,1004.9
2022-12-11T04:26:59.860Z,1004.9
2022-12-11T04:28:02.360Z,1004.9
2022-12-11T04:29:04.669Z,1004.9
2022-12-11T04:30:07.355Z,1004.9
2022-12-11T04:31:10.485Z,1004.9
2022-12-11T04:32:13.950Z,1004.9
2022-12-11T04:33:16.162Z,1004.9
2022-12-11T04:34:19.223Z,1004.9
2022-12-11T04:35:22.114Z,1004.9
2022-12-11T04:36:25.788Z,1005
2022-12-11T04:37:28.924Z,1004.9
2022-12-11T04:38:32.256Z,1004.9
2022-12-11T04:39:35.384Z,1004.9
2022-12-11T04:40:37.801Z,1004.9
2022-12-11T04:41:40.577Z,1004.9
2022-12-11T04:42:43.428Z,1005
2022-12-11T04:43:46.141Z,1004.9
2022-12-11T04:44:48.938Z,1004.9
2022-12-11T04:45:51.437Z,1004.9
2022-12-11T04:46:54.145Z,1004.9
2022-12-11T04:47:57.552Z,1005
2022-12-11T04:49:00.882Z,1005
2022-12-11T04:50:04.279Z,1005
2022-12-11T04:51:07.378Z,1004.9
2022-12-11T04:52:10.841Z,1005
2022-12-11T04:53:13.910Z,1005
2022-12-11T04:54:16.956Z,1005
2022-12-11T04:55:19.932Z,1005
2022-12-11T04:56:22.987Z,1005
2022-12-11T04:57:25.851Z,1005
2022-12-11T04:58:29.200Z,1005
2022-12-11T04:59:31.992Z,1004.9
2022-12-11T05:00:34.762Z,1005
2022-12-11T05:01:37.918Z,1005
2022-12-11T05:02:41.289Z,1005
2022-12-11T05:03:43.953Z,1005
2022-12-11T05:04:46.738Z,1005
2022-12-11T05:05:50.079Z,1005
2022-12-11T05:06:52.627Z,1005
2022-12-11T05:07:56.135Z,1005
2022-12-11T05:09:00.084Z,1005
2022-12-11T05:10:03.128Z,1005
2022-12-11T05:11:05.880Z,1004.9
2022-12-11T05:12:08.296Z,1004.9
2022-12-11T05:13:11.061Z,1004.9
2022-12-11T05:14:13.903Z,1004.9
2022-12-11T05:15:17.304Z,1004.9
2022-12-11T05:16:19.928Z,1004.9
2022-12-11T05:17:23.225Z,1004.9
2022-12-11T05:18:26.216Z,1004.9
2022-12-11T05:19:29.627Z,1004.9
2022-12-11T05:20:32.606Z,1004.9
2022-12-11T05:21:35.906Z,1004.9
2022-12-11T05:22:39.226Z,1004.9
2022-12-11T05:23:43.014Z,1004.9
2022-12-11T05:24:46.450Z,1004.9
2022-12-11T05:25:49.100Z,1004.9
2022-12-11T05:26:51.506Z,1004.9
2022-12-11T05:27:54.465Z,1004.9
2022-12-11T05:28:57.600Z,1004.9
2022-12-11T05:30:00.930Z,1004.9
2022-12-11T05:31:02.913Z,1004.8
2022-12-11T05:32:06.040Z,1004.9
2022-12-11T05:33:08.277Z,1004.8
2022-12-11T05:34:11.251Z,1004.9
2022-12-11T05:35:14.544Z,1004.9
2022-12-11T05:36:17.313Z,1004.9
2022-12-11T05:37:19.738Z,1004.9
2022-12-11T05:38:22.922Z,1004.9
2022-12-11T05:39:26.677Z,1004.9
2022-12-11T05:40:29.208Z,1004.9
2022-12-11T05:41:32.343Z,1004.9
2022-12-11T05:42:35.394Z,1004.9
2022-12-11T05:43:38.422Z,1004.9
2022-12-11T05:44:41.116Z,1004.9
2022-12-11T05:45:44.233Z,1004.9
2022-12-11T05:46:47.408Z,1004.9
2022-12-11T05:47:51.362Z,1004.9
2022-12-11T05:48:54.482Z,1004.9
2022-12-11T05:49:57.261Z,1004.9
2022-12-11T05:50:59.702Z,1004.9
2022-12-11T05:52:02.565Z,1004.9
2022-12-11T05:53:05.691Z,1004.9
2022-12-11T05:54:08.853Z,1004.9
2022-12-11T05:55:13.253Z,1004.9
2022-12-11T05:56:17.299Z,1004.9
2022-12-11T05:57:20.078Z,1004.9
2022-12-11T05:58:23.005Z,1004.9
2022-12-11T05:59:25.773Z,1004.9
2022-12-11T06:00:36.244Z,1004.8
2022-12-11T06:01:39.514Z,1004.8
2022-12-11T06:02:43.579Z,1004.8
2022-12-11T06:03:46.561Z,1004.7
2022-12-11T06:04:49.333Z,1004.6
2022-12-11T06:05:52.817Z,1004.6
2022-12-11T06:06:55.889Z,1004.6
2022-12-11T06:07:59.168Z,1004.6
2022-12-11T06:09:02.392Z,1004.6
2022-12-11T06:10:05.139Z,1004.5
2022-12-11T06:11:08.530Z,1004.5
2022-12-11T06:12:11.383Z,1004.5
2022-12-11T06:13:14.792Z,1004.5
2022-12-11T06:14:18.124Z,1004.5
2022-12-11T06:15:20.274Z,1004.5
2022-12-11T06:16:22.630Z,1004.5
2022-12-11T06:17:25.534Z,1004.5
2022-12-11T06:18:28.217Z,1004.5
2022-12-11T06:19:37.292Z,1004.6
2022-12-11T06:20:40.664Z,1004.6
2022-12-11T06:21:43.161Z,1004.6
2022-12-11T06:22:46.287Z,1004.6
2022-12-11T06:23:49.060Z,1004.6
2022-12-11T06:24:51.499Z,1004.6
2022-12-11T06:25:54.054Z,1004.7
2022-12-11T06:26:57.834Z,1004.7
2022-12-11T06:28:01.291Z,1004.7
2022-12-11T06:29:12.857Z,1004.8
2022-12-11T06:30:16.210Z,1004.8
2022-12-11T06:31:19.548Z,1004.8
2022-12-11T06:32:23.634Z,1004.9
2022-12-11T06:33:26.408Z,1004.8
2022-12-11T06:34:29.452Z,1004.9
2022-12-11T06:35:32.532Z,1004.8
2022-12-11T06:36:44.612Z,1004.8
2022-12-11T06:37:48.346Z,1004.8
2022-12-11T06:38:51.191Z,1004.8
2022-12-11T06:39:54.603Z,1004.8
2022-12-11T06:40:57.689Z,1004.8
2022-12-11T06:42:00.865Z,1004.7
2022-12-11T06:43:04.663Z,1004.7
2022-12-11T06:44:07.725Z,1004.8
2022-12-11T06:45:11.751Z,1004.8
2022-12-11T06:46:15.604Z,1004.8
2022-12-11T06:47:19.473Z,1004.7
2022-12-11T06:48:22.239Z,1004.7
2022-12-11T06:49:24.670Z,1004.7
2022-12-11T06:50:27.178Z,1004.7
2022-12-11T06:51:30.174Z,1004.7
2022-12-11T06:52:33.422Z,1004.6
2022-12-11T06:53:36.570Z,1004.6
2022-12-11T06:54:39.671Z,1004.6
2022-12-11T06:55:42.442Z,1004.6
2022-12-11T06:56:44.652Z,1004.5
2022-12-11T06:57:47.885Z,1004.5
2022-12-11T06:58:51.230Z,1004.5
2022-12-11T06:59:54.780Z,1004.5
2022-12-11T07:00:57.140Z,1004.5
2022-12-11T07:02:00.459Z,1004.5
2022-12-11T07:03:03.776Z,1004.5
2022-12-11T07:04:07.119Z,1004.5
2022-12-11T07:05:10.266Z,1004.5
2022-12-11T07:06:14.863Z,1004.5
2022-12-11T07:07:18.197Z,1004.6
2022-12-11T07:08:21.402Z,1004.6
2022-12-11T07:09:24.571Z,1004.6
2022-12-11T07:10:26.976Z,1004.6
2022-12-11T07:11:29.783Z,1004.5
2022-12-11T07:12:33.183Z,1004.5
2022-12-11T07:13:36.915Z,1004.6
2022-12-11T07:14:40.345Z,1004.6
2022-12-11T07:15:43.043Z,1004.6
2022-12-11T07:16:46.459Z,1004.6
2022-12-11T07:17:48.608Z,1004.6
2022-12-11T07:18:51.063Z,1004.7
2022-12-11T07:19:53.626Z,1004.6
2022-12-11T07:20:56.117Z,1004.6
2022-12-11T07:21:59.447Z,1004.7
2022-12-11T07:23:01.965Z,1004.7
2022-12-11T07:24:05.020Z,1004.7
2022-12-11T07:25:09.477Z,1004.7
2022-12-11T07:26:14.334Z,1004.7
2022-12-11T07:27:17.113Z,1004.7
2022-12-11T07:28:20.305Z,1004.7
2022-12-11T07:29:23.985Z,1004.7
2022-12-11T07:30:27.510Z,1004.7
2022-12-11T07:31:30.474Z,1004.7
2022-12-11T07:32:33.116Z,1004.7
2022-12-11T07:33:36.426Z,1004.7
2022-12-11T07:34:39.211Z,1004.7
2022-12-11T07:35:41.986Z,1004.6
2022-12-11T07:36:44.687Z,1004.7
2022-12-11T07:37:47.482Z,1004.6
2022-12-11T07:38:50.843Z,1004.7
2022-12-11T07:39:53.333Z,1004.7
2022-12-11T07:40:55.641Z,1004.7
2022-12-11T07:41:58.418Z,1004.7
2022-12-11T07:43:01.463Z,1004.7
2022-12-11T07:44:04.844Z,1004.7
2022-12-11T07:45:09.793Z,1004.7
2022-12-11T07:46:15.249Z,1004.7
2022-12-11T07:47:18.317Z,1004.7
2022-12-11T07:48:21.725Z,1004.7
2022-12-11T07:49:24.137Z,1004.7
2022-12-11T07:50:26.983Z,1004.7
2022-12-11T07:51:29.792Z,1004.8
2022-12-11T07:52:32.084Z,1004.8
2022-12-11T07:53:34.688Z,1004.8
2022-12-11T07:54:38.147Z,1004.8
2022-12-11T07:55:41.228Z,1004.8
2022-12-11T07:56:45.690Z,1004.8
2022-12-11T07:57:56.623Z,1004.8
2022-12-11T07:59:00.222Z,1004.8
2022-12-11T08:00:03.670Z,1004.9
2022-12-11T08:01:07.136Z,1004.8
2022-12-11T08:02:10.938Z,1004.8
2022-12-11T08:03:14.365Z,1004.8
2022-12-11T08:04:17.264Z,1004.8
2022-12-11T08:05:19.681Z,1004.8
2022-12-11T08:06:22.179Z,1004.8
2022-12-11T08:07:25.254Z,1004.8
2022-12-11T08:08:28.734Z,1004.7
2022-12-11T08:09:31.877Z,1004.7
2022-12-11T08:10:34.852Z,1004.7
2022-12-11T08:11:38.181Z,1004.7
2022-12-11T08:12:41.650Z,1004.7
2022-12-11T08:13:44.817Z,1004.7
2022-12-11T08:14:47.664Z,1004.8
2022-12-11T08:15:50.392Z,1004.7
2022-12-11T08:16:57.431Z,1004.7
2022-12-11T08:18:00.898Z,1004.8
2022-12-11T08:19:03.949Z,1004.8
2022-12-11T08:20:06.722Z,1004.8
2022-12-11T08:21:08.943Z,1004.8
2022-12-11T08:22:11.720Z,1004.7
2022-12-11T08:23:14.878Z,1004.7
2022-12-11T08:24:17.943Z,1004.8
2022-12-11T08:25:21.018Z,1004.8
2022-12-11T08:26:23.319Z,1004.7
2022-12-11T08:27:25.730Z,1004.8
2022-12-11T08:28:27.989Z,1004.7
2022-12-11T08:29:30.483Z,1004.8
2022-12-11T08:30:34.025Z,1004.7
2022-12-11T08:31:37.621Z,1004.7
2022-12-11T08:32:41.475Z,1004.7
2022-12-11T08:33:44.591Z,1004.7
2022-12-11T08:34:47.089Z,1004.7
2022-12-11T08:35:49.596Z,1004.7
2022-12-11T08:36:51.736Z,1004.7
2022-12-11T08:37:53.989Z,1004.7
2022-12-11T08:38:57.323Z,1004.7
2022-12-11T08:40:00.024Z,1004.7
2022-12-11T08:41:03.155Z,1004.7
2022-12-11T08:42:05.999Z,1004.6
2022-12-11T08:43:09.129Z,1004.6
2022-12-11T08:44:17.159Z,1004.6
2022-12-11T08:45:19.752Z,1004.6
2022-12-11T08:46:22.313Z,1004.6
2022-12-11T08:47:25.804Z,1004.6
2022-12-11T08:48:29.648Z,1004.7
2022-12-11T08:49:35.254Z,1004.7
2022-12-11T08:50:37.744Z,1004.7
2022-12-11T08:51:40.160Z,1004.7
2022-12-11T08:52:43.021Z,1004.7
2022-12-11T08:53:45.802Z,1004.7
2022-12-11T08:54:48.913Z,1004.7
2022-12-11T08:55:51.408Z,1004.7
2022-12-11T08:56:58.503Z,1004.7
2022-12-11T08:58:01.279Z,1004.7
2022-12-11T08:59:04.261Z,1004.8
2022-12-11T09:00:06.831Z,1004.8
2022-12-11T09:01:09.761Z,1004.8
2022-12-11T09:02:12.779Z,1004.8
2022-12-11T09:03:16.225Z,1004.8
2022-12-11T09:04:19.566Z,1004.8
2022-12-11T09:05:22.989Z,1004.8
2022-12-11T09:06:26.024Z,1004.8
2022-12-11T09:07:29.454Z,1004.8
2022-12-11T09:08:32.306Z,1004.9
2022-12-11T09:09:34.851Z,1004.9
2022-12-11T09:10:37.632Z,1004.9
2022-12-11T09:11:40.782Z,1004.9
2022-12-11T09:12:44.205Z,1004.9
2022-12-11T09:13:46.626Z,1004.9
2022-12-11T09:14:50.260Z,1004.9
2022-12-11T09:15:53.461Z,1005
2022-12-11T09:16:56.445Z,1004.9
2022-12-11T09:17:59.332Z,1004.9
2022-12-11T09:19:02.422Z,1005
2022-12-11T09:20:05.517Z,1004.9
2022-12-11T09:21:08.617Z,1004.9
2022-12-11T09:22:11.392Z,1004.9
2022-12-11T09:23:13.671Z,1004.9
2022-12-11T09:24:16.592Z,1004.9
2022-12-11T09:25:19.319Z,1004.9
2022-12-11T09:26:22.095Z,1004.8
2022-12-11T09:27:25.432Z,1004.8
2022-12-11T09:28:28.242Z,1004.9
2022-12-11T09:29:31.667Z,1004.8
2022-12-11T09:30:34.469Z,1004.9
2022-12-11T09:31:37.824Z,1004.9
2022-12-11T09:32:41.305Z,1004.8
2022-12-11T09:33:43.593Z,1004.8
2022-12-11T09:34:46.512Z,1004.8
2022-12-11T09:35:49.688Z,1004.8
2022-12-11T09:36:53.128Z,1004.8
2022-12-11T09:37:56.261Z,1004.8
2022-12-11T09:38:58.399Z,1004.8
2022-12-11T09:40:08.077Z,1004.8
2022-12-11T09:41:11.479Z,1004.7
2022-12-11T09:42:14.549Z,1004.7
2022-12-11T09:43:17.127Z,1004.7
2022-12-11T09:44:19.653Z,1004.7
2022-12-11T09:45:22.421Z,1004.7
2022-12-11T09:46:27.652Z,1004.6
2022-12-11T09:47:37.038Z,1004.6
2022-12-11T09:48:39.536Z,1004.6
2022-12-11T09:49:42.898Z,1004.5
2022-12-11T09:50:45.784Z,1004.6
2022-12-11T09:51:49.281Z,1004.5
2022-12-11T09:52:52.928Z,1004.5
2022-12-11T09:53:56.364Z,1004.6
2022-12-11T09:54:59.348Z,1004.6
2022-12-11T09:56:02.841Z,1004.6
2022-12-11T09:57:06.476Z,1004.5
2022-12-11T09:58:09.446Z,1004.5
2022-12-11T09:59:11.393Z,1004.5
2022-12-11T10:00:14.454Z,1004.5
2022-12-11T10:01:17.030Z,1004.6
2022-12-11T10:02:19.743Z,1004.5
2022-12-11T10:03:23.312Z,1004.5
2022-12-11T10:04:26.704Z,1004.5
2022-12-11T10:05:29.578Z,1004.5
2022-12-11T10:06:32.582Z,1004.5
2022-12-11T10:07:35.144Z,1004.5
2022-12-11T10:08:38.312Z,1004.5
2022-12-11T10:09:40.733Z,1004.5
2022-12-11T10:10:43.308Z,1004.5
2022-12-11T10:11:48.277Z,1004.5
2022-12-11T10:12:59.035Z,1004.4
2022-12-11T10:14:02.089Z,1004.4
2022-12-11T10:15:04.817Z,1004.5
2022-12-11T10:16:07.983Z,1004.4
2022-12-11T10:17:11.142Z,1004.4
2022-12-11T10:18:14.923Z,1004.4
2022-12-11T10:19:17.708Z,1004.4
2022-12-11T10:20:21.113Z,1004.4
2022-12-11T10:21:23.572Z,1004.4
2022-12-11T10:22:26.958Z,1004.3
2022-12-11T10:23:30.760Z,1004.3
2022-12-11T10:25:11.735Z,1004.3
2022-12-11T10:26:16.053Z,1004.3
2022-12-11T10:27:18.561Z,1004.3
2022-12-11T10:28:21.004Z,1004.3
2022-12-11T10:29:23.714Z,1004.2
2022-12-11T10:30:28.398Z,1004.2
2022-12-11T10:31:37.608Z,1004.2
2022-12-11T10:32:40.817Z,1004.2
2022-12-11T10:33:43.581Z,1004.2
2022-12-11T10:34:46.636Z,1004.2
2022-12-11T10:35:50.089Z,1004.1
2022-12-11T10:37:00.720Z,1004.1
2022-12-11T10:38:03.676Z,1004.1
2022-12-11T10:39:07.136Z,1004.1
2022-12-11T10:40:09.960Z,1004.1
2022-12-11T10:41:12.734Z,1004.1
2022-12-11T10:42:15.872Z,1004
2022-12-11T10:43:18.657Z,1004
2022-12-11T10:44:21.637Z,1004
2022-12-11T10:45:24.494Z,1004
2022-12-11T10:46:27.736Z,1004
2022-12-11T10:47:30.673Z,1004
2022-12-11T10:48:32.904Z,1004
2022-12-11T10:49:35.700Z,1003.9
2022-12-11T10:50:39.054Z,1003.9
2022-12-11T10:51:41.476Z,1003.9
2022-12-11T10:52:43.427Z,1003.9
2022-12-11T10:53:46.241Z,1003.8
2022-12-11T10:54:49.689Z,1003.8
2022-12-11T10:55:53.471Z,1003.8
2022-12-11T10:56:56.018Z,1003.8
2022-12-11T10:57:59.108Z,1003.8
2022-12-11T10:59:02.728Z,1003.8
2022-12-11T11:00:05.510Z,1003.8
2022-12-11T11:01:08.855Z,1003.8
2022-12-11T11:02:12.464Z,1003.8
2022-12-11T11:03:15.413Z,1003.8
2022-12-11T11:04:18.219Z,1003.9
2022-12-11T11:05:21.072Z,1003.9
2022-12-11T11:06:23.865Z,1003.9
2022-12-11T11:07:27.019Z,1003.9
2022-12-11T11:08:30.337Z,1003.9
2022-12-11T11:09:33.409Z,1003.9
2022-12-11T11:10:36.242Z,1003.9
2022-12-11T11:11:39.945Z,1003.9
2022-12-11T11:12:42.823Z,1003.9
2022-12-11T11:13:46.527Z,1003.9
2022-12-11T11:14:49.381Z,1003.9
2022-12-11T11:15:52.783Z,1003.9
2022-12-11T11:16:56.463Z,1003.9
2022-12-11T11:17:59.353Z,1003.9
2022-12-11T11:19:02.451Z,1003.9
2022-12-11T11:20:05.309Z,1003.8
2022-12-11T11:21:07.895Z,1003.8
2022-12-11T11:22:10.981Z,1003.8
2022-12-11T11:23:13.754Z,1003.8
2022-12-11T11:24:16.834Z,1003.8
2022-12-11T11:25:19.712Z,1003.8
2022-12-11T11:26:22.897Z,1003.8
2022-12-11T11:28:14.908Z,1003.8
2022-12-11T11:29:17.971Z,1003.8
2022-12-11T11:30:20.941Z,1003.8
2022-12-11T11:31:24.139Z,1003.7
2022-12-11T11:32:26.763Z,1003.7
2022-12-11T11:33:29.690Z,1003.7
2022-12-11T11:34:32.471Z,1003.7
2022-12-11T11:35:35.529Z,1003.7
2022-12-11T11:36:47.231Z,1003.6
2022-12-11T11:37:50.572Z,1003.6
2022-12-11T11:38:53.926Z,1003.5
2022-12-11T11:39:56.366Z,1003.5
2022-12-11T11:41:10.196Z,1003.5
2022-12-11T11:42:18.250Z,1003.5
2022-12-11T11:43:21.628Z,1003.5
2022-12-11T11:44:24.336Z,1003.6
2022-12-11T11:45:27.055Z,1003.6
2022-12-11T11:46:30.066Z,1003.6
2022-12-11T11:47:34.402Z,1003.6
2022-12-11T11:48:37.528Z,1003.6
2022-12-11T11:49:41.278Z,1003.6
2022-12-11T11:50:44.254Z,1003.6
2022-12-11T11:51:47.101Z,1003.6
2022-12-11T11:52:50.078Z,1003.6
2022-12-11T11:53:53.241Z,1003.6
2022-12-11T11:54:56.101Z,1003.6
2022-12-11T11:55:58.625Z,1003.5
2022-12-11T11:57:01.071Z,1003.6
2022-12-11T11:58:04.196Z,1003.6
2022-12-11T11:59:07.891Z,1003.6
2022-12-11T12:00:10.585Z,1003.6
2022-12-11T12:01:13.559Z,1003.6
2022-12-11T12:02:16.326Z,1003.6
2022-12-11T12:03:19.451Z,1003.6
2022-12-11T12:04:22.225Z,1003.5
2022-12-11T12:05:25.935Z,1003.5
2022-12-11T12:06:29.348Z,1003.6
2022-12-11T12:07:32.117Z,1003.6
2022-12-11T12:08:35.655Z,1003.6
2022-12-11T12:09:38.783Z,1003.6
2022-12-11T12:10:41.151Z,1003.6
2022-12-11T12:11:44.553Z,1003.6
2022-12-11T12:12:47.743Z,1003.6
2022-12-11T12:13:51.507Z,1003.6
2022-12-11T12:14:54.603Z,1003.6
2022-12-11T12:15:57.517Z,1003.6
2022-12-11T12:17:01.309Z,1003.6
2022-12-11T12:18:04.585Z,1003.6
2022-12-11T12:19:07.681Z,1003.5
2022-12-11T12:20:10.658Z,1003.5
2022-12-11T12:21:12.921Z,1003.5
2022-12-11T12:22:16.625Z,1003.5
2022-12-11T12:23:19.404Z,1003.5
2022-12-11T12:24:22.381Z,1003.5
2022-12-11T12:25:25.659Z,1003.5
2022-12-11T12:26:28.739Z,1003.5
2022-12-11T12:28:02.223Z,1003.5
2022-12-11T12:29:05.893Z,1003.5
2022-12-11T12:30:09.286Z,1003.5
2022-12-11T12:31:12.831Z,1003.5
2022-12-11T12:32:16.285Z,1003.5
2022-12-11T12:33:19.693Z,1003.5
2022-12-11T12:34:22.827Z,1003.5
2022-12-11T12:35:25.605Z,1003.5
2022-12-11T12:36:29.032Z,1003.5
2022-12-11T12:37:32.086Z,1003.5
2022-12-11T12:38:35.512Z,1003.5
2022-12-11T12:39:38.022Z,1003.5
2022-12-11T12:40:40.745Z,1003.5
2022-12-11T12:41:43.599Z,1003.5
2022-12-11T12:42:46.652Z,1003.5
2022-12-11T12:43:50.466Z,1003.5
2022-12-11T12:44:54.085Z,1003.5
2022-12-11T12:45:57.324Z,1003.5
2022-12-11T12:46:59.976Z,1003.5
2022-12-11T12:48:02.950Z,1003.5
2022-12-11T12:49:06.283Z,1003.4
2022-12-11T12:50:08.850Z,1003.4
2022-12-11T12:51:12.443Z,1003.4
2022-12-11T12:52:15.516Z,1003.4
2022-12-11T12:53:18.494Z,1003.5
2022-12-11T12:54:21.196Z,1003.4
2022-12-11T12:55:23.877Z,1003.5
2022-12-11T12:56:26.653Z,1003.5
2022-12-11T12:57:29.679Z,1003.4
2022-12-11T12:58:32.086Z,1003.5
2022-12-11T12:59:35.144Z,1003.4
2022-12-11T13:00:38.787Z,1003.4
2022-12-11T13:01:42.505Z,1003.4
2022-12-11T13:02:45.874Z,1003.5
2022-12-11T13:03:48.727Z,1003.4
2022-12-11T13:04:58.724Z,1003.4
2022-12-11T13:06:01.632Z,1003.4
2022-12-11T13:07:04.399Z,1003.4
2022-12-11T13:08:07.871Z,1003.4
2022-12-11T13:09:11.054Z,1003.5
2022-12-11T13:10:13.821Z,1003.4
2022-12-11T13:11:16.788Z,1003.4
2022-12-11T13:12:20.267Z,1003.4
2022-12-11T13:13:23.314Z,1003.4
2022-12-11T13:14:26.016Z,1003.4
2022-12-11T13:15:28.916Z,1003.4
2022-12-11T13:16:33.142Z,1003.4
2022-12-11T13:17:36.913Z,1003.3
2022-12-11T13:18:40.248Z,1003.4